Weather observations for the past three days for
Springfield - Abraham Lincoln Capital Airport
Imperial (Metric)
Date Time (cdt) Wind (mph) Vis. (mi.) Weather Sky Cond. Temperature (ºF) Relative Humidity Wind Chill (°F) Heat Index (°F) Pressure Precipitation (in)
Air Dwpt 6 hour altimeter (in) sea level (mb) 1 hr 3 hr 6 hr
Max. Min.
06 14:52 E 13 G 21 10.00 Fair CLR 86 64 48% 87 30.02 1015.9
06 13:52 E 10 10.00 Fair CLR 84.9 64 50% 86 30.03 1016.4
06 12:52 NE 8 10.00 Fair CLR 82.9 64 84 72 53% 84 30.05 1017.1
06 11:52 NE 10 G 17 10.00 Fair CLR 82 64.9 56% 84 30.07 1017.6
06 10:52 E 10 10.00 Fair CLR 80.1 64.9 60% 82 30.07 1017.6
06 09:52 E 8 10.00 Fair CLR 77 66.9 71% 79 30.06 1017.4
06 08:52 NE 10 10.00 Overcast OVC011 73 69.1 87% 30.05 1017.0
06 07:52 NE 10 9.00 Overcast OVC007 72 69.1 91% 30.05 1017.1
06 06:52 N 6 10.00 Overcast OVC015 72 69.1 73.9 70 91% 30.03 1016.3
06 05:52 N 5 10.00 Overcast OVC011 71.1 69.1 94% 30.01 1015.7
06 04:52 NE 6 10.00 Overcast OVC007 71.1 68 90% 29.99 1015.0
06 03:52 NE 6 8.00 Overcast OVC005 70 68 93% 30 1015.1
06 02:52 NE 8 10.00 Overcast OVC010 71.1 68 90% 29.99 1015.0
06 01:52 NE 10 10.00 Partly Cloudy SCT011 72 68 87% 30.01 1015.5
06 00:52 E 9 10.00 A Few Clouds FEW031 73 70 89.1 73 90% 29.99 1015.0
05 23:52 NE 9 10.00 Fair CLR 75 70 84% 75 29.98 1014.5
05 22:52 NE 10 10.00 Fair CLR 78.1 72 82% 80 29.96 1014.0
05 21:52 NE 14 G 22 10.00 Fair CLR 81 73 77% 86 29.96 1013.8
05 20:52 NE 9 10.00 Fair CLR 82.9 75.9 79% 91 29.93 1012.8
05 19:52 N 7 10.00 Fair CLR 84.9 77 77% 95 29.91 1012.3
05 18:52 N 5 10.00 Fair CLR 89.1 77 98.1 89.1 68% 102 29.9 1012.0
05 17:52 N 7 10.00 Fair CLR 91 75.9 61% 103 29.9 1011.9
05 16:52 N 10 10.00 Fair CLR 93.9 73 51% 103 29.9 1011.8
05 15:52 N 9 10.00 A Few Clouds FEW050 96.1 73 48% 106 29.9 1012.0
05 12:52 Calm 10.00 Fair CLR 96.1 73 96.1 73.9 48% 106 29.94 1013.1
05 11:52 N 6 10.00 Fair CLR 93.9 73 51% 103 29.95 1013.6
05 10:52 NW 3 10.00 Partly Cloudy SCT120 91 73.9 57% 101 29.96 1013.8
05 09:52 W 6 10.00 Mostly Cloudy BKN110 88 71.1 57% 94 29.94 1013.3
05 08:52 Calm 10.00 Fair CLR 84 73 70% 90 29.95 1013.4
05 07:52 Calm 10.00 Fair CLR 80.1 71.1 74% 84 29.94 1013.3
05 06:52 Calm 10.00 Fair CLR 73.9 71.1 77 73 91% 29.93 1012.8
05 05:52 Calm 10.00 Fair CLR 73.9 70 88% 29.92 1012.5
05 04:52 W 5 10.00 Fair CLR 75.9 70 82% 77 29.92 1012.6
05 03:52 SW 5 10.00 Fair CLR 75 71.1 88% 75 29.93 1012.8
05 02:52 SW 3 10.00 Fair CLR 75 73 94% 73 29.93 1013.0
05 01:52 Calm 10.00 Fair CLR 75.9 73 91% 76 29.93 1013.0
05 00:52 Calm 10.00 Fair CLR 75.9 73.9 91.9 75.9 94% 75 29.93 1013.0
04 23:52 Calm 10.00 Fair CLR 75.9 73.9 94% 75 29.93 1013.0
04 22:52 Calm 10.00 Fair CLR 78.1 73.9 87% 81 29.94 1013.2
04 21:52 Calm 10.00 Fair CLR 79 75 88% 83 29.93 1012.9
04 20:52 Calm 10.00 Fair CLR 81 75 82% 87 29.92 1012.5
04 19:52 Calm 10.00 Fair CLR 84.9 75.9 75% 94 29.91 1012.2
04 18:52 Calm 10.00 Fair CLR 91.9 75.9 97 91.9 60% 104 29.9 1012.0
04 17:52 NW 5 10.00 Fair CLR 95 72 47% 103 29.9 1012.0
04 16:52 W 3 10.00 Fair CLR 96.1 71.1 44% 104 29.91 1012.1
04 15:52 N 5 10.00 Fair CLR 97 71.1 43% 105 29.93 1012.7
04 14:52 Vrbl 3 10.00 A Few Clouds FEW060 97 71.1 43% 105 29.95 1013.5
04 13:52 N 7 10.00 Fair CLR 96.1 73 48% 106 29.97 1014.0
04 12:52 N 9 10.00 Fair CLR 96.1 72 96.1 78.1 46% 105 29.98 1014.5
04 10:52 W 7 10.00 Fair CLR 93 71.1 49% 100 29.99 1014.9
04 08:52 SW 9 G 20 10.00 Fair CLR 84.9 70 61% 89 29.97 1014.3
04 07:52 SW 6 10.00 Fair CLR 81 70 69% 84 29.97 1014.1
04 06:52 SW 5 10.00 Fair CLR 78.1 70 82.9 75.9 76% 80 29.96 1014.0
04 05:52 Calm 10.00 Fair CLR 77 70 79% 79 29.95 1013.6
04 04:52 SW 5 10.00 Fair CLR 80.1 70 71% 83 29.94 1013.1
04 03:52 S 6 10.00 Fair CLR 80.1 70 71% 83 29.93 1012.6
04 02:52 S 5 10.00 Fair CLR 80.1 70 71% 83 29.93 1012.9
04 01:52 S 6 10.00 Fair CLR 81 70 69% 84 29.94 1013.1
04 00:52 SW 7 10.00 Fair CLR 82.9 70 91 79 65% 87 29.95 1013.4
03 23:52 S 6 10.00 Fair CLR 82.9 69.1 63% 87 29.94 1013.1
03 22:52 S 6 10.00 Fair CLR 82 69.1 65% 85 29.93 1013.0
03 21:52 S 5 10.00 Fair CLR 80.1 68 67% 83 29.94 1013.1
03 20:52 S 5 10.00 Fair CLR 84 66 55% 86 29.92 1012.6
03 19:52 S 7 10.00 Fair CLR 87.1 68 53% 91 29.9 1011.9
03 18:52 S 6 10.00 Fair CLR 91 68 99 91 47% 95 29.91 1012.0
03 17:52 SW 5 10.00 Fair CLR 96.1 66.9 39% 100 29.9 1012.0
03 16:52 SW 9 10.00 Fair CLR 97 66 36% 101 29.9 1012.0
Date Time (cdt) Wind (mph) Vis. (mi.) Weather Sky Cond. Air Dwpt Max. Min. Relative Humidity Wind Chill (°F) Heat Index (°F) altimeter (in) sea level (mb) 1 hr 3 hr 6 hr
6 hour
Temperature (ºF) Pressure Precipitation (in)